| time (UTC) | temp C | wind direction | speed KPH | gust KPH | rain 1hr cm | rain 24hr cm | rain mn cm | humidity % | barometer mb |
| 20260507063917 | 15 | 158 | 6.4 | 8.0 | 0.00 | 0.00 | 0.00 | 80 | 1018.2 |
| 20260507062917 | 15 | 135 | 4.8 | 8.0 | 0.00 | 0.00 | 0.00 | 79 | 1018.2 |
| 20260507061918 | 15 | 135 | 8.0 | 11.3 | 0.00 | 0.00 | 0.00 | 78 | 1017.9 |
| 20260507060916 | 16 | 135 | 4.8 | 9.7 | 0.00 | 0.00 | 0.00 | 77 | 1018.0 |
| 20260507055917 | 16 | 135 | 3.2 | 4.8 | 0.00 | 0.00 | 0.00 | 76 | 1018.0 |
| 20260507054917 | 16 | 135 | 3.2 | 4.8 | 0.00 | 0.00 | 0.00 | 76 | 1018.0 |
| 20260507053917 | 16 | 135 | 4.8 | 6.4 | 0.00 | 0.00 | 0.00 | 76 | 1017.9 |
| 20260507052916 | 16 | 135 | 6.4 | 8.0 | 0.00 | 0.00 | 0.00 | 76 | 1017.9 |
| 20260507051916 | 16 | 135 | 4.8 | 8.0 | 0.00 | 0.00 | 0.00 | 76 | 1017.8 |
| 20260507050916 | 15 | 135 | 6.4 | 8.0 | 0.00 | 0.00 | 0.00 | 75 | 1017.8 |
| 20260507045917 | 15 | 135 | 4.8 | 6.4 | 0.00 | 0.00 | 0.00 | 76 | 1017.8 |
| 20260507044916 | 16 | 158 | 4.8 | 11.3 | 0.00 | 0.00 | 0.00 | 75 | 1017.9 |
| 20260507043916 | 16 | 135 | 6.4 | 11.3 | 0.00 | 0.00 | 0.00 | 73 | 1017.8 |
| 20260507042917 | 16 | 180 | 4.8 | 12.9 | 0.00 | 0.00 | 0.00 | 72 | 1017.7 |
| 20260507041916 | 16 | 158 | 8.0 | 14.5 | 0.00 | 0.00 | 0.00 | 70 | 1017.6 |
| 20260507040916 | 16 | 158 | 14.5 | 17.7 | 0.00 | 0.00 | 0.00 | 69 | 1017.5 |
| 20260507035937 | 17 | 135 | 9.7 | 14.5 | 0.00 | 0.00 | 0.00 | 69 | 1017.6 |
| 20260507034916 | 17 | 135 | 12.9 | 14.5 | 0.00 | 0.00 | 0.00 | 69 | 1017.5 |
| 20260507033916 | 17 | 135 | 9.7 | 14.5 | 0.00 | 0.00 | 0.00 | 69 | 1017.4 |
| 20260507032936 | 17 | 135 | 9.7 | 16.1 | 0.00 | 0.00 | 0.00 | 68 | 1017.2 |
| 20260507031917 | 17 | 90 | 4.8 | 9.7 | 0.00 | 0.00 | 0.00 | 67 | 1016.9 |
| 20260507030917 | 17 | 135 | 3.2 | 8.0 | 0.00 | 0.00 | 0.00 | 67 | 1016.8 |
| 20260507025916 | 18 | 113 | 4.8 | 9.7 | 0.00 | 0.00 | 0.00 | 67 | 1016.8 |
| 20260507024916 | 18 | 113 | 4.8 | 8.0 | 0.00 | 0.00 | 0.00 | 65 | 1016.7 |
| 20260507023916 | 18 | 135 | 3.2 | 6.4 | 0.00 | 0.00 | 0.00 | 64 | 1016.8 |
| 20260507022916 | 18 | 113 | 1.6 | 4.8 | 0.00 | 0.00 | 0.00 | 63 | 1016.6 |
| 20260507021916 | 18 | 135 | 4.8 | 9.7 | 0.00 | 0.00 | 0.00 | 60 | 1016.4 |
| 20260507020916 | 20 | 135 | 4.8 | 8.0 | 0.00 | 0.00 | 0.00 | 57 | 1016.3 |
| 20260507015916 | 20 | 135 | 1.6 | 4.8 | 0.00 | 0.00 | 0.00 | 55 | 1016.4 |
| 20260507014916 | 20 | 135 | 3.2 | 4.8 | 0.00 | 0.00 | 0.00 | 55 | 1016.3 |
| 20260507013936 | 20 | 135 | 1.6 | 3.2 | 0.00 | 0.00 | 0.00 | 56 | 1016.3 |
| 20260507012916 | 21 | 113 | 1.6 | 4.8 | 0.00 | 0.00 | 0.00 | 56 | 1016.1 |
| 20260507011916 | 21 | 113 | 3.2 | 6.4 | 0.00 | 0.00 | 0.00 | 56 | 1016.2 |
| 20260507010916 | 21 | 135 | 4.8 | 11.3 | 0.00 | 0.00 | 0.00 | 54 | 1016.0 |
| 20260507005936 | 21 | 203 | 4.8 | 11.3 | 0.00 | 0.00 | 0.00 | 54 | 1015.9 |
| 20260507004916 | 21 | 158 | 1.6 | 3.2 | 0.00 | 0.00 | 0.00 | 54 | 1016.0 |
| 20260507003915 | 22 | 90 | 3.2 | 4.8 | 0.00 | 0.00 | 0.00 | 53 | 1016.0 |
| 20260507002916 | 22 | 135 | 3.2 | 6.4 | 0.00 | 0.00 | 0.00 | 51 | 1016.0 |
| 20260507001915 | 22 | 248 | 4.8 | 12.9 | 0.00 | 0.00 | 0.00 | 50 | 1016.1 |
| 20260507000915 | 23 | 315 | 3.2 | 4.8 | 0.00 | 0.00 | 0.00 | 50 | 1016.0 |
| 20260506235935 | 23 | 180 | 4.8 | 14.5 | 0.00 | 0.00 | 0.00 | 51 | 1015.9 |
| 20260506234916 | 23 | 203 | 8.0 | 11.3 | 0.00 | 0.00 | 0.00 | 52 | 1016.1 |
| 20260506233916 | 23 | 293 | 4.8 | 8.0 | 0.00 | 0.00 | 0.00 | 51 | 1016.1 |
| 20260506232916 | 23 | 225 | 6.4 | 11.3 | 0.00 | 0.00 | 0.00 | 51 | 1016.0 |
| 20260506231956 | 23 | 270 | 9.7 | 17.7 | 0.00 | 0.00 | 0.00 | 50 | 1016.1 |
| 20260506230915 | 23 | 135 | 3.2 | 8.0 | 0.00 | 0.00 | 0.00 | 51 | 1016.2 |
| 20260506225918 | 23 | 180 | 6.4 | 14.5 | 0.00 | 0.00 | 0.00 | 49 | 1016.2 |
| 20260506224939 | 23 | 270 | 4.8 | 9.7 | 0.00 | 0.00 | 0.00 | 50 | 1016.3 |
| 20260506223918 | 23 | 113 | 4.8 | 8.0 | 0.00 | 0.00 | 0.00 | 49 | 1016.5 |
| 20260506222937 | 23 | 203 | 6.4 | 14.5 | 0.00 | 0.00 | 0.00 | 50 | 1016.5 |
| 20260506221917 | 23 | 270 | 9.7 | 16.1 | 0.00 | 0.00 | 0.00 | 51 | 1016.7 |
| 20260506220917 | 23 | 248 | 16.1 | 20.9 | 0.00 | 0.00 | 0.00 | 50 | 1017.0 |
| 20260506215917 | 23 | 225 | 6.4 | 12.9 | 0.00 | 0.00 | 0.00 | 51 | 1017.0 |
| 20260506214918 | 23 | 90 | 3.2 | 3.2 | 0.00 | 0.00 | 0.00 | 52 | 1017.1 |
| 20260506213917 | 22 | 270 | 9.7 | 20.9 | 0.00 | 0.00 | 0.00 | 53 | 1017.2 |
| 20260506212938 | 23 | 135 | 3.2 | 6.4 | 0.00 | 0.00 | 0.00 | 53 | 1017.3 |
| 20260506211917 | 22 | 135 | 4.8 | 8.0 | 0.00 | 0.00 | 0.00 | 53 | 1017.4 |
| 20260506210938 | 22 | 158 | 4.8 | 9.7 | 0.00 | 0.00 | 0.00 | 52 | 1017.7 |
| 20260506205917 | 22 | 135 | 4.8 | 12.9 | 0.00 | 0.00 | 0.00 | 53 | 1017.6 |
| 20260506204938 | 22 | 90 | 6.4 | 16.1 | 0.00 | 0.00 | 0.00 | 53 | 1017.6 |
| 20260506203917 | 22 | 293 | 4.8 | 11.3 | 0.00 | 0.00 | 0.00 | 53 | 1017.8 |
| 20260506202918 | 21 | 135 | 12.9 | 16.1 | 0.00 | 0.00 | 0.00 | 55 | 1017.9 |
| 20260506201918 | 22 | 135 | 12.9 | 20.9 | 0.00 | 0.00 | 0.00 | 55 | 1018.1 |
| 20260506200917 | 22 | 45 | 1.6 | 3.2 | 0.00 | 0.00 | 0.00 | 51 | 1018.3 |
| 20260506195917 | 22 | 113 | 1.6 | 3.2 | 0.00 | 0.00 | 0.00 | 53 | 1018.4 |
| 20260506194918 | 22 | 135 | 6.4 | 9.7 | 0.00 | 0.00 | 0.00 | 51 | 1018.4 |
| 20260506193938 | 22 | 113 | 4.8 | 9.7 | 0.00 | 0.00 | 0.00 | 53 | 1018.6 |
| 20260506192917 | 21 | 90 | 6.4 | 12.9 | 0.00 | 0.00 | 0.00 | 53 | 1018.6 |
| 20260506191917 | 21 | 113 | 4.8 | 6.4 | 0.00 | 0.00 | 0.00 | 54 | 1018.9 |
| 20260506190918 | 21 | 90 | 6.4 | 11.3 | 0.00 | 0.00 | 0.00 | 54 | 1019.1 |
| 20260506185917 | 21 | 135 | 9.7 | 19.3 | 0.00 | 0.00 | 0.00 | 56 | 1019.0 |
| 20260506184918 | 21 | 113 | 6.4 | 12.9 | 0.00 | 0.00 | 0.00 | 56 | 1019.2 |
| 20260506183916 | 20 | 135 | 4.8 | 11.3 | 0.00 | 0.00 | 0.00 | 58 | 1019.2 |
| 20260506182917 | 20 | 135 | 4.8 | 8.0 | 0.00 | 0.00 | 0.00 | 58 | 1019.2 |
| 20260506181917 | 20 | 113 | 3.2 | 6.4 | 0.00 | 0.00 | 0.00 | 59 | 1019.4 |
| 20260506180917 | 19 | 90 | 3.2 | 4.8 | 0.00 | 0.00 | 0.00 | 60 | 1019.5 |
| 20260506175917 | 19 | 135 | 4.8 | 11.3 | 0.00 | 0.00 | 0.00 | 61 | 1019.4 |
| 20260506174917 | 19 | 135 | 4.8 | 8.0 | 0.00 | 0.00 | 0.00 | 61 | 1019.5 |
| 20260506173937 | 19 | 90 | 6.4 | 12.9 | 0.00 | 0.00 | 0.00 | 61 | 1019.5 |
| 20260506172916 | 19 | 0.0 | 1.6 | 0.00 | 0.00 | 0.00 | 61 | 1019.3 | |
| 20260506171916 | 18 | 45 | 4.8 | 6.4 | 0.00 | 0.00 | 0.00 | 62 | 1019.3 |
| 20260506170917 | 18 | 45 | 1.6 | 3.2 | 0.00 | 0.00 | 0.00 | 64 | 1019.3 |
| 20260506165917 | 18 | 68 | 3.2 | 4.8 | 0.00 | 0.00 | 0.00 | 64 | 1019.3 |
| 20260506164917 | 17 | 113 | 1.6 | 4.8 | 0.00 | 0.00 | 0.00 | 66 | 1019.2 |
| 20260506163917 | 17 | 113 | 3.2 | 6.4 | 0.00 | 0.00 | 0.00 | 68 | 1019.2 |
| 20260506162917 | 17 | 90 | 4.8 | 6.4 | 0.00 | 0.00 | 0.00 | 67 | 1019.4 |
| 20260506161936 | 17 | 113 | 1.6 | 4.8 | 0.00 | 0.00 | 0.00 | 67 | 1019.2 |
| 20260506160916 | 17 | 135 | 3.2 | 4.8 | 0.00 | 0.00 | 0.00 | 69 | 1019.1 |
| 20260506155916 | 16 | 90 | 6.4 | 11.3 | 0.00 | 0.00 | 0.00 | 70 | 1019.3 |
| 20260506154917 | 16 | 0.0 | 1.6 | 0.00 | 0.00 | 0.00 | 70 | 1019.2 | |
| 20260506153916 | 16 | 135 | 3.2 | 4.8 | 0.00 | 0.00 | 0.00 | 72 | 1019.3 |
| 20260506152916 | 16 | 0.0 | 1.6 | 0.00 | 0.00 | 0.00 | 74 | 1019.3 | |
| 20260506151916 | 15 | 135 | 3.2 | 4.8 | 0.00 | 0.00 | 0.00 | 72 | 1019.1 |
| 20260506150917 | 16 | 135 | 3.2 | 6.4 | 0.00 | 0.00 | 0.00 | 70 | 1019.1 |
| 20260506145937 | 15 | 45 | 1.6 | 3.2 | 0.00 | 0.00 | 0.00 | 74 | 1019.1 |
| 20260506144916 | 13 | 0.0 | 1.6 | 0.00 | 0.00 | 0.00 | 76 | 1019.2 | |
| 20260506143917 | 13 | 68 | 1.6 | 3.2 | 0.00 | 0.00 | 0.00 | 76 | 1019.2 |
| 20260506142916 | 13 | 0.0 | 3.2 | 0.00 | 0.00 | 0.00 | 76 | 1019.1 | |
| 20260506141916 | 13 | 0.0 | 1.6 | 0.00 | 0.00 | 0.00 | 76 | 1019.3 | |
| 20260506140916 | 12 | 0.0 | 1.6 | 0.00 | 0.00 | 0.00 | 78 | 1018.9 | |
| 20260506135916 | 12 | 90 | 1.6 | 3.2 | 0.00 | 0.00 | 0.00 | 78 | 1018.8 |
| 20260506134917 | 12 | 113 | 1.6 | 1.6 | 0.00 | 0.00 | 0.00 | 79 | 1018.8 |
| 20260506133917 | 11 | 0.0 | 0.0 | 0.00 | 0.00 | 0.00 | 82 | 1018.7 | |
| 20260506132916 | 11 | 0.0 | 1.6 | 0.00 | 0.00 | 0.00 | 82 | 1018.4 | |
| 20260506131917 | 11 | 0.0 | 1.6 | 0.00 | 0.00 | 0.00 | 82 | 1018.4 | |
| 20260506130917 | 11 | 0.0 | 1.6 | 0.00 | 0.00 | 0.00 | 82 | 1018.5 | |
| 20260506125936 | 11 | 0.0 | 0.0 | 0.00 | 0.00 | 0.00 | 82 | 1018.3 | |
| 20260506124916 | 11 | 0.0 | 0.0 | 0.00 | 0.00 | 0.00 | 82 | 1018.2 | |
| 20260506123916 | 11 | 113 | 1.6 | 3.2 | 0.00 | 0.00 | 0.00 | 82 | 1018.1 |
| 20260506122916 | 11 | 0.0 | 1.6 | 0.00 | 0.00 | 0.00 | 83 | 1018.0 | |
| 20260506121916 | 11 | 225 | 1.6 | 1.6 | 0.00 | 0.00 | 0.00 | 83 | 1018.1 |
| 20260506120916 | 11 | 0.0 | 1.6 | 0.00 | 0.00 | 0.00 | 83 | 1018.0 | |
| 20260506115916 | 11 | 225 | 1.6 | 3.2 | 0.00 | 0.00 | 0.00 | 83 | 1018.0 |
| 20260506114936 | 11 | 0.0 | 0.0 | 0.00 | 0.00 | 0.00 | 82 | 1017.9 | |
| 20260506113915 | 11 | 0.0 | 1.6 | 0.00 | 0.00 | 0.00 | 81 | 1017.9 | |
| 20260506112916 | 11 | 0.0 | 1.6 | 0.00 | 0.00 | 0.00 | 81 | 1017.8 | |
| 20260506111937 | 11 | 0.0 | 1.6 | 0.00 | 0.00 | 0.00 | 81 | 1017.7 | |
| 20260506110915 | 11 | 0.0 | 1.6 | 0.00 | 0.00 | 0.00 | 80 | 1017.8 | |
| 20260506105916 | 11 | 225 | 1.6 | 1.6 | 0.00 | 0.00 | 0.00 | 80 | 1017.8 |
| 20260506104917 | 11 | 0.0 | 1.6 | 0.00 | 0.00 | 0.00 | 80 | 1017.9 | |
| 20260506103918 | 11 | 0.0 | 0.0 | 0.00 | 0.00 | 0.00 | 79 | 1018.0 | |
| 20260506102918 | 12 | 0.0 | 0.0 | 0.00 | 0.00 | 0.00 | 79 | 1018.0 | |
| 20260506101918 | 12 | 225 | 1.6 | 3.2 | 0.00 | 0.00 | 0.00 | 78 | 1017.9 |
| 20260506100917 | 12 | 0.0 | 1.6 | 0.00 | 0.00 | 0.00 | 79 | 1017.8 | |
| 20260506095959 | 12 | 0.0 | 0.0 | 0.00 | 0.00 | 0.00 | 78 | 1017.8 | |
| 20260506094918 | 12 | 225 | 1.6 | 3.2 | 0.00 | 0.00 | 0.00 | 78 | 1017.8 |
| 20260506093917 | 12 | 225 | 3.2 | 4.8 | 0.00 | 0.00 | 0.00 | 78 | 1018.1 |
| 20260506092917 | 12 | 0.0 | 0.0 | 0.00 | 0.00 | 0.00 | 75 | 1017.9 | |
| 20260506091917 | 12 | 0.0 | 1.6 | 0.00 | 0.00 | 0.00 | 75 | 1017.9 | |
| 20260506090917 | 13 | 0.0 | 0.0 | 0.00 | 0.00 | 0.00 | 73 | 1018.2 | |
| 20260506085918 | 13 | 0.0 | 3.2 | 0.00 | 0.00 | 0.00 | 73 | 1018.2 | |
| 20260506084937 | 13 | 180 | 1.6 | 3.2 | 0.00 | 0.00 | 0.00 | 73 | 1018.4 |
| 20260506083917 | 13 | 203 | 1.6 | 3.2 | 0.00 | 0.00 | 0.00 | 73 | 1018.4 |
| 20260506082917 | 13 | 158 | 3.2 | 6.4 | 0.00 | 0.00 | 0.00 | 75 | 1018.5 |
| 20260506081917 | 13 | 135 | 1.6 | 4.8 | 0.00 | 0.00 | 0.00 | 75 | 1018.3 |
| 20260506080917 | 13 | 158 | 1.6 | 4.8 | 0.00 | 0.00 | 0.00 | 75 | 1018.5 |
| 20260506072917 | 13 | 135 | 1.6 | 3.2 | 0.00 | 0.00 | 0.00 | 76 | 1018.5 |
| 20260506071917 | 13 | 135 | 1.6 | 3.2 | 0.00 | 0.00 | 0.00 | 75 | 1018.4 |
| 20260506070957 | 13 | 135 | 1.6 | 3.2 | 0.00 | 0.00 | 0.00 | 75 | 1018.2 |